METAR Data
IDs: Format: Raw Decoded Include TAF

Data at: 0249 UTC 25 Feb 2021

EGPH 250220Z 25010KT 9999 FEW019 07/05 Q1013